Delta Virtual Airport Information Service

Houston George Bush Intercontinental Airport

ICAO: KIAH Country: United States
Latitude: 29.9844 Longitude: -95.3414
Latest Arrival : AAL1661 (1A) (KCLT-KIAH) Latest Departure : UAL524 (1A) (KIAH-KMSY)


WX CaptureLIVE
Data provided by noaa.gov | Fetched at 16:19:57

METAR : KIAH 242053Z 11006KT 10SM FEW025 SCT045 BKN130 BKN250 27/23 A2981 RMK AO2 LTG DSNT W-NE RAB18E33 TSB05E29 SLP093 CB DSNT W-N-NE MOV N P0000 60021 T02720228 55015

TAF : KIAH 242053Z 2421/2524 13010KT P6SM VCTS SCT025 SCT050CB BKN120 TEMPO 2421/2424 -TSRA FM250000 14010KT P6SM VCTS SCT035CB BKN045 FM250200 13010KT P6SM SCT030 BKN250 FM250400 12006KT P6SM SCT023 SCT030 FM250800 13007KT 6SM SHRA BKN023 OVC250 FM251500 14007KT P6SM VCTS BKN030CB OVC250


Runway Data for KIAH
Data provided by openaviationdata.com

Runway ID Mag Var Hdg Length Elevation Surface ILS Freq ILS Id ILS Slope
08L 5 84° 8992 ft 97 ft Concrete 111.55 IBZU 3
08R 5 84° 9394 ft 97 ft Concrete 109.7 IIAH 3
9 5 84° 9991 ft 97 ft Asphalt 110.9 IUYO 3
15L 5 147° 12022 ft 97 ft Concrete 111.9 IHSQ 2
15R 5 147° 10016 ft 97 ft Concrete 111.15 ILKM 3
26L 5 264° 9394 ft 97 ft Concrete 109.7 IJYV 3
26R 5 264° 8992 ft 97 ft Concrete 111.55 IOND 3
27 5 264° 9991 ft 97 ft Asphalt 110.9 IGHI 3
33L 5 327° 10016 ft 97 ft Concrete -- -- --
33R 5 327° 12022 ft 97 ft Concrete 111.9 ICDG 3

Houston George Bush Intercontinental Airport, United States
Use only for reference purposes



Not for navigational purposes.